Time;durP1;ratioP1;P1;durP2;ratioP2;P2;SDS_P1;SDS_P2;PMS_P1;PMS_P2;Temp;Humidity;BMP_temperature;BMP_pressure;BME280_temperature;BME280_humidity;BME280_pressure;Samples;Min_cycle;Max_cycle;Signal;HPM_P1;HPM_P2
2023/02/16 00:21:37;;;;;;;6.65;4.93;;;10.40;99.90;;;;;;1215160;27;20478;-81
2023/02/16 01:04:03;;;;;;;6.30;3.78;;;10.20;99.90;;;;;;4899296;29;20090;-81
2023/02/16 01:26:26;;;;;;;7.95;5.60;;;10.20;99.90;;;;;;5553790;23;20068;-83
2023/02/16 01:47:11;;;;;;;6.15;4.30;;;10.20;99.90;;;;;;4659932;30;20035;-80
2023/02/16 01:59:24;;;;;;;5.93;3.60;;;10.30;99.90;;;;;;5770581;23;20073;-79
2023/02/16 02:02:01;;;;;;;6.55;4.22;;;10.20;99.90;;;;;;4888215;29;20033;-80
2023/02/16 02:07:44;;;;;;;8.45;4.65;;;10.30;99.90;;;;;;4904190;29;20084;-80
2023/02/16 02:10:41;;;;;;;6.30;4.10;;;10.30;99.90;;;;;;4887213;29;20029;-80
2023/02/16 02:13:19;;;;;;;6.75;4.70;;;10.30;99.90;;;;;;4872979;29;20041;-80
2023/02/16 02:15:44;;;;;;;7.22;4.72;;;10.30;99.90;;;;;;4886673;29;20032;-80
2023/02/16 02:18:10;;;;;;;6.90;4.72;;;10.30;99.90;;;;;;4904278;29;20390;-80
2023/02/16 02:24:23;;;;;;;6.30;4.15;;;10.30;99.90;;;;;;4833598;29;20061;-80
2023/02/16 04:04:47;;;;;;;6.65;3.80;;;10.50;99.90;;;;;;5411099;23;20068;-80
2023/02/16 04:07:12;;;;;;;7.55;3.97;;;10.50;99.90;;;;;;4887609;29;20037;-81
2023/02/16 04:09:38;;;;;;;8.60;4.68;;;10.50;99.90;;;;;;4883522;29;20033;-81
2023/02/16 04:50:24;;;;;;;8.95;4.80;;;10.60;99.90;;;;;;5592894;23;20052;-82
2023/02/16 04:53:03;;;;;;;7.93;4.78;;;10.60;99.90;;;;;;4888804;29;20035;-82
2023/02/16 04:55:32;;;;;;;7.60;4.68;;;10.60;99.90;;;;;;4888011;29;20029;-82
2023/02/16 04:57:57;;;;;;;7.63;4.63;;;10.60;99.90;;;;;;4889005;29;20036;-82
2023/02/16 06:17:49;;;;;;;5.85;3.92;;;10.50;99.90;;;;;;4598490;31;20043;-81
2023/02/16 06:21:07;;;;;;;6.47;4.65;;;10.50;99.90;;;;;;4605688;31;20431;-81
2023/02/16 06:24:11;;;;;;;6.38;3.78;;;10.50;99.90;;;;;;4687826;30;20044;-81
2023/02/16 06:27:31;;;;;;;;;;;;;;;;;;;;;
2023/02/16 06:30:01;;;;;;;6.47;3.95;;;10.50;99.90;;;;;;4768251;29;20051;-82
2023/02/16 06:32:27;;;;;;;7.68;4.35;;;10.60;99.90;;;;;;4813259;29;20107;-82
2023/02/16 07:12:01;;;;;;;6.25;3.58;;;10.60;99.90;;;;;;5350544;23;20048;-80
2023/02/16 07:18:50;;;;;;;5.15;3.13;;;10.70;99.90;;;;;;4872498;29;20048;-82
2023/02/16 08:43:41;;;;;;;3.45;2.40;;;11.10;99.90;;;;;;5682434;23;20072;-77
2023/02/16 08:49:29;;;;;;;3.83;2.30;;;11.10;99.90;;;;;;4900105;29;20531;-79
2023/02/16 08:52:00;;;;;;;2.95;2.15;;;11.20;99.90;;;;;;4879376;29;20112;-79
2023/02/16 08:54:29;;;;;;;4.47;2.20;;;11.20;99.90;;;;;;4884488;29;20033;-73
2023/02/16 08:56:58;;;;;;;4.00;2.30;;;11.30;99.90;;;;;;4901806;29;20393;-74
2023/02/16 08:59:25;;;;;;;4.57;2.13;;;11.30;99.90;;;;;;4897627;29;20124;-73
2023/02/16 09:01:50;;;;;;;7.28;2.45;;;11.40;99.90;;;;;;4897911;29;20032;-73
2023/02/16 09:04:18;;;;;;;4.30;1.83;;;11.40;99.90;;;;;;4898547;29;20112;-72
2023/02/16 09:06:47;;;;;;;3.63;2.15;;;11.40;99.90;;;;;;4884883;29;20111;-72
2023/02/16 09:09:13;;;;;;;2.15;1.48;;;11.50;99.90;;;;;;4893446;29;20371;-72
2023/02/16 09:11:39;;;;;;;3.33;1.63;;;11.50;99.90;;;;;;4903231;29;20401;-72
2023/02/16 09:14:05;;;;;;;4.43;1.85;;;11.50;99.90;;;;;;4904684;29;20018;-76
2023/02/16 09:16:38;;;;;;;2.72;1.40;;;11.50;99.90;;;;;;4885657;29;20091;-71
2023/02/16 09:19:05;;;;;;;2.65;1.63;;;11.60;99.90;;;;;;4884633;29;20059;-70
2023/02/16 09:21:33;;;;;;;3.65;1.98;;;11.60;99.90;;;;;;4884637;29;20088;-75
2023/02/16 09:24:02;;;;;;;4.78;1.92;;;11.70;99.90;;;;;;4884338;29;20035;-71
2023/02/16 09:26:32;;;;;;;4.13;1.90;;;11.70;99.90;;;;;;4903605;29;20118;-72
2023/02/16 09:28:57;;;;;;;4.95;1.70;;;11.70;99.90;;;;;;4887943;29;20028;-71
2023/02/16 09:31:26;;;;;;;3.40;1.67;;;11.70;99.90;;;;;;4905235;29;20031;-72
2023/02/16 09:34:16;;;;;;;3.33;1.67;;;11.80;99.90;;;;;;4904729;29;20045;-72
2023/02/16 09:36:42;;;;;;;3.88;1.40;;;11.70;99.90;;;;;;4904309;29;20040;-71
2023/02/16 09:39:08;;;;;;;4.43;1.80;;;11.70;99.90;;;;;;4902250;29;20060;-73
2023/02/16 09:41:40;;;;;;;4.28;1.80;;;11.80;99.90;;;;;;4903922;29;20028;-73
2023/02/16 09:44:33;;;;;;;8.32;2.10;;;11.70;99.90;;;;;;4902497;29;20057;-76
2023/02/16 09:47:04;;;;;;;2.38;1.65;;;11.80;99.90;;;;;;4902551;29;20024;-76
2023/02/16 09:49:37;;;;;;;2.47;1.70;;;11.80;99.90;;;;;;4894513;29;20037;-77
2023/02/16 09:52:10;;;;;;;;;;;11.80;99.90;;;;;;4887729;29;20107;-76
2023/02/16 09:54:46;;;;;;;2.20;1.13;;;11.90;99.90;;;;;;4903841;29;19908;-76
2023/02/16 09:57:30;;;;;;;2.22;1.42;;;11.90;99.90;;;;;;4886939;29;20410;-76
2023/02/16 10:00:10;;;;;;;2.53;1.30;;;11.90;99.90;;;;;;4902591;29;20080;-74
2023/02/16 10:02:56;;;;;;;4.07;1.80;;;11.90;99.90;;;;;;4886484;29;20036;-73
2023/02/16 10:05:42;;;;;;;6.45;1.77;;;12.00;99.90;;;;;;4904060;29;20112;-74
2023/02/16 10:08:13;;;;;;;4.78;1.75;;;12.00;99.90;;;;;;4902286;29;20068;-72
2023/02/16 10:11:36;;;;;;;3.10;1.83;;;12.00;99.90;;;;;;4903443;29;20017;-71
2023/02/16 10:13:56;;;;;;;3.90;2.05;;;12.00;99.90;;;;;;4886265;29;20119;-71
2023/02/16 10:16:28;;;;;;;3.70;2.25;;;12.00;99.90;;;;;;4903716;29;20099;-72
2023/02/16 10:18:56;;;;;;;4.90;2.53;;;12.10;99.90;;;;;;4903027;29;20060;-72
2023/02/16 10:21:28;;;;;;;6.15;3.08;;;12.10;99.90;;;;;;4902175;29;20035;-69
2023/02/16 10:24:01;;;;;;;6.25;2.25;;;12.20;99.90;;;;;;4901888;29;20505;-69
2023/02/16 10:26:38;;;;;;;4.20;2.20;;;12.10;99.90;;;;;;4903370;29;20170;-71
2023/02/16 10:29:22;;;;;;;2.85;1.80;;;12.20;99.90;;;;;;4903875;29;20029;-72
2023/02/16 10:32:06;;;;;;;3.60;1.73;;;12.20;99.90;;;;;;4892239;29;20398;-73
2023/02/16 10:34:43;;;;;;;;;;;12.30;99.90;;;;;;4919036;29;20024;-72
2023/02/16 10:37:21;;;;;;;3.05;1.85;;;12.30;99.90;;;;;;4902792;29;19986;-73
2023/02/16 10:40:09;;;;;;;5.60;2.90;;;12.30;99.90;;;;;;4886553;29;20020;-72
2023/02/16 10:42:59;;;;;;;6.40;2.90;;;12.30;99.90;;;;;;4880552;29;20123;-71
2023/02/16 10:45:51;;;;;;;5.80;2.83;;;12.30;99.90;;;;;;4866550;29;20053;-71
2023/02/16 10:48:19;;;;;;;3.85;2.33;;;12.30;99.90;;;;;;4875849;29;20025;-71
2023/02/16 10:51:11;;;;;;;4.40;2.45;;;12.30;99.90;;;;;;4903673;29;20381;-72
2023/02/16 10:53:53;;;;;;;3.97;1.60;;;12.30;99.90;;;;;;4903783;29;20033;-71
2023/02/16 10:56:27;;;;;;;4.55;1.52;;;12.40;99.90;;;;;;4886677;29;20434;-71
2023/02/16 10:58:53;;;;;;;4.40;1.60;;;12.40;99.90;;;;;;4903283;29;20553;-71
2023/02/16 11:01:36;;;;;;;2.53;1.33;;;12.40;99.90;;;;;;4886425;29;20032;-72
2023/02/16 11:04:02;;;;;;;2.80;1.27;;;12.30;99.90;;;;;;4903257;29;20065;-72
2023/02/16 11:06:28;;;;;;;4.22;1.45;;;12.40;99.90;;;;;;4903240;29;20570;-72
2023/02/16 11:09:03;;;;;;;3.15;1.20;;;12.40;99.90;;;;;;4902452;29;20060;-72
2023/02/16 11:11:39;;;;;;;3.92;0.90;;;12.40;99.90;;;;;;4901599;29;20012;-72
2023/02/16 11:14:23;;;;;;;2.58;0.80;;;12.40;99.90;;;;;;4874430;29;20033;-72
2023/02/16 11:17:01;;;;;;;2.90;0.93;;;12.50;99.90;;;;;;4900441;29;20521;-73
2023/02/16 11:19:27;;;;;;;2.78;0.85;;;12.60;99.90;;;;;;4914819;29;20028;-73
2023/02/16 11:21:55;;;;;;;2.10;0.77;;;12.60;99.90;;;;;;4915702;29;20028;-72
2023/02/16 11:24:35;;;;;;;1.92;0.75;;;12.60;99.90;;;;;;4903815;29;20075;-72
2023/02/16 11:27:15;;;;;;;1.52;0.80;;;12.60;99.90;;;;;;4920055;29;20095;-73
2023/02/16 11:29:41;;;;;;;3.72;0.90;;;12.70;99.90;;;;;;4902242;29;20034;-74
2023/02/16 11:32:09;;;;;;;1.35;0.75;;;12.70;99.90;;;;;;4901559;29;20021;-73
2023/02/16 11:34:36;;;;;;;2.30;0.82;;;12.70;99.90;;;;;;4884726;29;20035;-72
2023/02/16 11:37:04;;;;;;;2.42;0.60;;;12.80;99.90;;;;;;4901865;29;20513;-73
2023/02/16 11:39:47;;;;;;;1.15;0.60;;;12.80;99.90;;;;;;4894347;29;20155;-73
2023/02/16 11:42:36;;;;;;;4.32;0.75;;;12.80;99.90;;;;;;4902347;29;20029;-71
2023/02/16 11:45:04;;;;;;;3.63;0.80;;;12.80;99.90;;;;;;4900262;29;20068;-70
2023/02/16 11:47:33;;;;;;;3.53;1.17;;;12.80;99.90;;;;;;4885256;29;20506;-73
2023/02/16 11:50:22;;;;;;;2.92;0.73;;;12.90;99.90;;;;;;4899065;29;20185;-74
2023/02/16 11:52:50;;;;;;;4.30;0.80;;;12.90;99.90;;;;;;4902496;29;20029;-72
2023/02/16 11:55:32;;;;;;;2.22;0.70;;;12.90;99.90;;;;;;4901652;29;20028;-71
2023/02/16 11:58:23;;;;;;;3.90;0.95;;;13.00;99.90;;;;;;4902457;29;20028;-71
2023/02/16 12:01:10;;;;;;;1.92;0.80;;;13.00;99.90;;;;;;4883470;29;20040;-72
2023/02/16 12:04:07;;;;;;;4.13;0.80;;;13.00;99.90;;;;;;4880768;29;20028;-71
2023/02/16 12:06:42;;;;;;;2.75;1.17;;;13.10;99.90;;;;;;4895557;29;20033;-72
2023/02/16 12:09:12;;;;;;;2.25;0.98;;;13.10;99.90;;;;;;4889966;29;20068;-72
2023/02/16 12:11:58;;;;;;;3.15;0.88;;;13.10;99.90;;;;;;4902088;29;20032;-70
2023/02/16 12:14:48;;;;;;;4.53;1.13;;;13.20;99.90;;;;;;4901670;29;20063;-69
2023/02/16 12:17:26;;;;;;;4.03;1.10;;;13.20;99.90;;;;;;4902207;29;20029;-73
2023/02/16 12:20:16;;;;;;;3.20;1.10;;;13.20;99.90;;;;;;4901867;29;20051;-72
2023/02/16 12:22:58;;;;;;;2.85;1.00;;;13.20;99.90;;;;;;4898797;29;20036;-72
2023/02/16 12:25:32;;;;;;;1.77;0.90;;;13.20;99.90;;;;;;4892280;29;20060;-71
2023/02/16 12:28:36;;;;;;;2.25;1.13;;;13.20;99.90;;;;;;4892447;29;20040;-76
2023/02/16 12:31:15;;;;;;;3.83;1.20;;;13.20;99.90;;;;;;4890807;29;20544;-78
2023/02/16 12:33:48;;;;;;;3.13;1.05;;;13.20;99.90;;;;;;4898856;29;20135;-77
2023/02/16 12:36:31;;;;;;;2.63;1.00;;;13.30;99.90;;;;;;4886743;29;20033;-79
2023/02/16 12:39:10;;;;;;;3.50;1.33;;;13.30;99.90;;;;;;4884473;29;20036;-83
2023/02/16 12:41:39;;;;;;;3.33;1.45;;;13.30;99.90;;;;;;4901761;29;20029;-76
2023/02/16 12:44:15;;;;;;;6.72;1.50;;;13.30;99.90;;;;;;4900994;29;20080;-77
2023/02/16 12:46:44;;;;;;;5.05;1.20;;;13.30;99.90;;;;;;4901018;29;20040;-71
2023/02/16 12:49:17;;;;;;;5.20;1.60;;;13.40;99.90;;;;;;4897203;29;20103;-70
2023/02/16 12:51:51;;;;;;;;;;;13.40;99.90;;;;;;4902253;29;20405;-70
2023/02/16 12:54:24;;;;;;;;;;;13.40;99.90;;;;;;4885130;29;19907;-71
2023/02/16 12:57:12;;;;;;;3.67;1.40;;;13.40;99.90;;;;;;4899885;29;20022;-71
2023/02/16 12:59:45;;;;;;;2.60;1.17;;;13.40;99.90;;;;;;4903091;29;20035;-71
2023/02/16 13:02:27;;;;;;;1.05;0.70;;;13.50;99.90;;;;;;4904571;29;20029;-73
2023/02/16 13:05:09;;;;;;;2.72;1.00;;;13.50;99.90;;;;;;4901754;29;20088;-74
2023/02/16 13:07:39;;;;;;;2.08;0.90;;;13.60;99.90;;;;;;4904422;29;20061;-72
2023/02/16 13:10:42;;;;;;;3.25;1.00;;;13.60;99.90;;;;;;4901904;29;20048;-71
2023/02/16 13:13:13;;;;;;;2.00;0.85;;;13.50;99.90;;;;;;4879580;29;20033;-70
2023/02/16 13:15:49;;;;;;;2.85;0.80;;;13.50;99.90;;;;;;4905497;29;20056;-71
2023/02/16 13:18:20;;;;;;;2.17;0.90;;;13.50;99.90;;;;;;4891508;29;20397;-73
2023/02/16 13:20:53;;;;;;;2.72;0.90;;;13.40;99.90;;;;;;4909760;29;20032;-70
2023/02/16 13:23:22;;;;;;;3.28;0.98;;;13.40;99.90;;;;;;4898770;29;20040;-71
2023/02/16 13:26:03;;;;;;;2.38;0.93;;;13.40;99.90;;;;;;4892730;29;20112;-72
2023/02/16 13:28:38;;;;;;;3.17;1.20;;;13.40;99.90;;;;;;4887728;29;20056;-72
2023/02/16 13:31:06;;;;;;;2.13;0.80;;;13.30;99.90;;;;;;4900034;29;20029;-73
2023/02/16 13:33:56;;;;;;;3.47;1.05;;;13.30;99.90;;;;;;4904827;29;20036;-73
2023/02/16 13:36:39;;;;;;;2.28;0.70;;;13.30;99.90;;;;;;4904686;29;20025;-75
2023/02/16 13:39:20;;;;;;;2.15;0.75;;;13.30;99.90;;;;;;4917845;29;20106;-74
2023/02/16 13:42:20;;;;;;;4.97;0.77;;;13.30;99.90;;;;;;4914255;29;20052;-74
2023/02/16 13:44:51;;;;;;;2.03;0.75;;;13.30;99.90;;;;;;4909964;29;20049;-75
2023/02/16 13:47:25;;;;;;;2.35;0.90;;;13.30;99.90;;;;;;4898858;29;20059;-72
2023/02/16 13:49:59;;;;;;;2.42;0.60;;;13.30;99.90;;;;;;4904756;29;20033;-71
2023/02/16 13:52:40;;;;;;;1.75;0.55;;;13.30;99.90;;;;;;4917819;29;20364;-72
2023/02/16 13:55:28;;;;;;;2.55;0.90;;;13.30;99.90;;;;;;4921524;29;20021;-72
2023/02/16 13:58:07;;;;;;;2.67;0.80;;;13.20;99.90;;;;;;4919332;29;20047;-72
2023/02/16 14:00:38;;;;;;;1.20;0.60;;;13.20;99.90;;;;;;4896547;29;20033;-72
2023/02/16 14:03:15;;;;;;;1.25;0.70;;;13.20;99.90;;;;;;4904319;29;20028;-73
2023/02/16 14:05:44;;;;;;;3.75;0.60;;;13.20;99.90;;;;;;4914711;29;20033;-73
2023/02/16 14:08:22;;;;;;;3.15;1.00;;;13.10;99.90;;;;;;4912314;29;20020;-74
2023/02/16 14:10:54;;;;;;;3.22;0.90;;;13.10;99.90;;;;;;4915406;29;20129;-74
2023/02/16 14:13:38;;;;;;;3.78;0.85;;;13.10;99.90;;;;;;4921645;29;20027;-75
2023/02/16 14:16:17;;;;;;;1.60;0.68;;;13.10;99.90;;;;;;4916290;29;20035;-74
2023/02/16 14:19:03;;;;;;;5.22;1.00;;;13.10;99.90;;;;;;4894748;29;20032;-74
2023/02/16 14:21:37;;;;;;;2.70;1.00;;;13.10;99.90;;;;;;4904024;29;20088;-73
2023/02/16 14:24:05;;;;;;;2.78;1.02;;;13.10;99.90;;;;;;4903970;29;20075;-74
2023/02/16 14:26:49;;;;;;;2.20;1.05;;;13.10;99.90;;;;;;4883446;29;20033;-73
2023/02/16 14:29:26;;;;;;;3.25;1.10;;;13.10;99.90;;;;;;4899979;29;20498;-74
2023/02/16 14:31:56;;;;;;;2.22;0.82;;;13.10;99.90;;;;;;4912437;29;20064;-75
2023/02/16 14:34:54;;;;;;;1.90;0.85;;;13.10;99.90;;;;;;4911237;29;20553;-74
2023/02/16 14:37:26;;;;;;;2.40;0.80;;;13.00;99.90;;;;;;4914531;29;20037;-74
2023/02/16 14:39:53;;;;;;;2.67;0.80;;;13.00;99.90;;;;;;4913097;29;20092;-73
2023/02/16 14:42:32;;;;;;;3.97;1.00;;;13.00;99.90;;;;;;4909870;29;20032;-74
2023/02/16 14:45:21;;;;;;;2.67;0.90;;;13.00;99.90;;;;;;4916986;29;20049;-73
2023/02/16 14:48:27;;;;;;;1.50;0.80;;;13.00;99.90;;;;;;4896877;29;20071;-70
2023/02/16 14:51:16;;;;;;;3.00;1.00;;;13.00;99.90;;;;;;4915718;29;20032;-73
2023/02/16 14:54:12;;;;;;;2.92;0.85;;;13.00;99.90;;;;;;4915942;29;20695;-71
2023/02/16 14:56:51;;;;;;;1.60;0.60;;;13.00;99.90;;;;;;4896692;29;20032;-74
2023/02/16 14:59:44;;;;;;;2.88;0.75;;;13.00;99.90;;;;;;4891883;29;20032;-72
2023/02/16 15:02:24;;;;;;;2.35;0.60;;;13.00;99.90;;;;;;4905328;29;20024;-73
2023/02/16 15:04:49;;;;;;;3.50;0.70;;;13.00;99.90;;;;;;4898677;29;20393;-74
2023/02/16 15:07:17;;;;;;;1.35;0.68;;;13.00;99.90;;;;;;4892128;29;20040;-73
2023/02/16 15:09:43;;;;;;;1.63;0.70;;;13.00;99.90;;;;;;4896830;29;20037;-73
2023/02/16 15:12:23;;;;;;;1.55;0.63;;;13.00;99.90;;;;;;4897141;29;20048;-72
2023/02/16 15:14:55;;;;;;;2.00;0.90;;;13.00;99.90;;;;;;4903214;29;20033;-73
2023/02/16 15:17:34;;;;;;;2.03;0.52;;;13.00;99.90;;;;;;4903042;29;20025;-72
2023/02/16 15:20:27;;;;;;;3.05;0.70;;;13.00;99.90;;;;;;4903116;29;20079;-74
2023/02/16 15:22:55;;;;;;;1.07;0.70;;;13.00;99.90;;;;;;4900183;29;20104;-71
2023/02/16 15:25:37;;;;;;;3.20;0.70;;;13.00;99.90;;;;;;4891721;29;20048;-73
2023/02/16 15:28:09;;;;;;;2.17;0.63;;;13.00;99.90;;;;;;4886452;29;20044;-75
2023/02/16 15:31:04;;;;;;;1.08;0.45;;;13.00;99.90;;;;;;4902235;29;20114;-72
2023/02/16 15:33:35;;;;;;;1.00;0.45;;;13.00;99.90;;;;;;4877239;29;20050;-73
2023/02/16 15:36:10;;;;;;;3.10;0.70;;;13.00;99.90;;;;;;4898603;29;20033;-74
2023/02/16 15:38:39;;;;;;;1.15;0.52;;;13.00;99.90;;;;;;4878971;29;20030;-76
2023/02/16 15:41:08;;;;;;;1.88;0.60;;;13.00;99.90;;;;;;4883992;29;20107;-74
2023/02/16 15:43:46;;;;;;;2.13;0.60;;;13.00;99.90;;;;;;4902950;29;20044;-73
2023/02/16 15:46:36;;;;;;;1.60;0.55;;;13.00;99.90;;;;;;4916927;29;20552;-72
2023/02/16 15:49:12;;;;;;;0.93;0.50;;;13.00;99.90;;;;;;4907141;29;20409;-72
2023/02/16 15:51:39;;;;;;;2.40;0.80;;;13.00;99.90;;;;;;4909243;29;20035;-72
2023/02/16 15:54:26;;;;;;;0.65;0.45;;;12.90;99.90;;;;;;4900921;29;20026;-75
2023/02/16 15:57:00;;;;;;;1.52;0.60;;;12.90;99.90;;;;;;4915780;29;20031;-72
2023/02/16 16:00:02;;;;;;;0.57;0.40;;;12.90;99.90;;;;;;4912842;29;20034;-73
2023/02/16 16:02:46;;;;;;;0.90;0.50;;;13.00;99.90;;;;;;4864032;29;20052;-75
2023/02/16 16:05:23;;;;;;;1.35;0.73;;;12.90;99.90;;;;;;4884848;29;20028;-75
2023/02/16 16:07:49;;;;;;;1.20;0.60;;;12.90;99.90;;;;;;4898816;29;20040;-76
2023/02/16 16:10:22;;;;;;;1.20;0.80;;;13.00;99.90;;;;;;4903514;29;20115;-76
2023/02/16 16:12:49;;;;;;;1.75;0.68;;;13.00;99.90;;;;;;4895472;29;20696;-72
2023/02/16 16:15:20;;;;;;;1.00;0.60;;;13.00;99.90;;;;;;4889729;29;20033;-71
2023/02/16 16:17:46;;;;;;;1.55;0.60;;;13.00;99.90;;;;;;4886806;29;20060;-72
2023/02/16 16:20:31;;;;;;;3.17;0.98;;;13.00;99.90;;;;;;4889710;29;20024;-71
2023/02/16 16:23:06;;;;;;;1.30;0.80;;;13.00;99.90;;;;;;4890602;29;20039;-69
2023/02/16 16:25:34;;;;;;;0.90;0.60;;;13.00;99.90;;;;;;4892387;29;20036;-69
2023/02/16 16:28:01;;;;;;;1.38;0.60;;;13.00;99.90;;;;;;4891838;29;20033;-68
2023/02/16 16:30:35;;;;;;;2.00;0.80;;;13.10;99.90;;;;;;4888280;29;20081;-69
2023/02/16 16:33:06;;;;;;;1.20;0.60;;;13.00;99.90;;;;;;4882738;29;20438;-68
2023/02/16 16:35:36;;;;;;;1.30;0.70;;;13.00;99.90;;;;;;4887069;29;20031;-71
2023/02/16 16:38:04;;;;;;;1.27;0.82;;;13.00;99.90;;;;;;4890989;29;20375;-71
2023/02/16 16:40:34;;;;;;;0.88;0.63;;;13.00;99.90;;;;;;4894997;29;20061;-73
2023/02/16 16:43:05;;;;;;;1.77;0.90;;;13.00;99.90;;;;;;4893179;29;20083;-73
2023/02/16 16:45:36;;;;;;;2.05;1.13;;;13.00;99.90;;;;;;4884370;29;20421;-73
2023/02/16 16:48:16;;;;;;;2.05;1.00;;;13.00;99.90;;;;;;4883218;29;20080;-73
2023/02/16 16:50:45;;;;;;;1.90;0.98;;;13.00;99.90;;;;;;4896729;29;20451;-74
2023/02/16 16:53:29;;;;;;;3.00;1.17;;;13.00;99.90;;;;;;4891263;29;20068;-73
2023/02/16 16:55:56;;;;;;;1.70;0.90;;;13.00;99.90;;;;;;4881104;29;20033;-73
2023/02/16 16:58:21;;;;;;;2.80;1.40;;;13.00;99.90;;;;;;4901271;29;20386;-71
2023/02/16 17:00:47;;;;;;;2.25;1.10;;;13.00;99.90;;;;;;4889529;29;20032;-70
2023/02/16 17:03:16;;;;;;;1.30;1.00;;;13.00;99.90;;;;;;4887486;29;20020;-71
2023/02/16 17:05:42;;;;;;;2.70;1.35;;;13.00;99.90;;;;;;4895272;29;20120;-71
2023/02/16 17:08:09;;;;;;;1.92;1.00;;;13.00;99.90;;;;;;4902699;29;20028;-71
2023/02/16 17:10:40;;;;;;;1.70;1.10;;;13.00;99.90;;;;;;4914869;29;20096;-71
2023/02/16 17:13:07;;;;;;;1.77;1.00;;;13.00;99.90;;;;;;4896381;29;20092;-71
2023/02/16 17:16:01;;;;;;;1.10;1.00;;;12.90;99.90;;;;;;4909612;29;20037;-72
2023/02/16 17:18:27;;;;;;;1.40;0.80;;;12.90;99.90;;;;;;4911048;29;20495;-73
2023/02/16 17:20:52;;;;;;;1.38;0.68;;;12.90;99.90;;;;;;4894729;29;20032;-74
2023/02/16 17:23:20;;;;;;;1.10;0.80;;;12.90;99.90;;;;;;4903513;29;20041;-73
2023/02/16 17:25:46;;;;;;;1.52;0.80;;;12.90;99.90;;;;;;4892827;29;20032;-73
2023/02/16 17:28:14;;;;;;;1.05;0.80;;;12.90;99.90;;;;;;4912754;29;20104;-73
2023/02/16 17:30:40;;;;;;;1.65;0.90;;;12.90;99.90;;;;;;4884149;29;20033;-74
2023/02/16 17:33:07;;;;;;;1.75;0.90;;;12.90;99.90;;;;;;4896561;29;20033;-73
2023/02/16 17:35:34;;;;;;;2.17;0.60;;;12.90;99.90;;;;;;4892142;29;20067;-73
2023/02/16 17:38:06;;;;;;;1.38;0.85;;;12.90;99.90;;;;;;4898544;29;20060;-73
2023/02/16 17:40:32;;;;;;;1.20;0.70;;;12.90;99.90;;;;;;4906582;29;20073;-73
2023/02/16 17:42:57;;;;;;;1.50;0.88;;;12.90;99.90;;;;;;4906152;29;20028;-72
2023/02/16 17:45:23;;;;;;;1.00;0.80;;;12.90;99.90;;;;;;4907679;29;20106;-71
2023/02/16 17:47:51;;;;;;;1.02;0.70;;;12.90;99.90;;;;;;4904306;29;20033;-72
2023/02/16 17:50:18;;;;;;;1.55;0.90;;;12.90;99.90;;;;;;4890497;29;20394;-72
2023/02/16 17:52:44;;;;;;;1.25;0.85;;;12.90;99.90;;;;;;4905777;29;20517;-71
2023/02/16 17:55:11;;;;;;;0.95;0.70;;;12.90;99.90;;;;;;4902312;29;20033;-70
2023/02/16 17:57:37;;;;;;;1.38;0.90;;;12.90;99.90;;;;;;4895095;29;20103;-71
2023/02/16 18:00:07;;;;;;;1.50;0.88;;;12.90;99.90;;;;;;4893838;29;20406;-72
2023/02/16 18:02:32;;;;;;;0.98;0.60;;;12.90;99.90;;;;;;4892181;29;20513;-71
2023/02/16 18:04:59;;;;;;;2.67;1.00;;;12.90;99.90;;;;;;4892125;29;20025;-71
2023/02/16 18:07:24;;;;;;;1.75;1.00;;;12.90;99.90;;;;;;4889393;29;20550;-70
2023/02/16 18:09:50;;;;;;;1.60;0.85;;;12.90;99.90;;;;;;4895261;29;20036;-70
2023/02/16 18:12:16;;;;;;;1.42;0.88;;;12.90;99.90;;;;;;4901759;29;20025;-70
2023/02/16 18:14:42;;;;;;;1.48;0.77;;;12.90;99.90;;;;;;4894554;29;20044;-71
2023/02/16 18:17:11;;;;;;;1.05;0.73;;;12.90;99.90;;;;;;4902572;29;20099;-70
2023/02/16 18:19:37;;;;;;;1.27;0.90;;;12.90;99.90;;;;;;4893441;29;20032;-71
2023/02/16 18:22:03;;;;;;;2.03;0.90;;;12.90;99.90;;;;;;4895558;29;20028;-71
2023/02/16 18:24:30;;;;;;;1.20;0.98;;;12.90;99.90;;;;;;4888061;29;20119;-71
2023/02/16 18:26:56;;;;;;;1.63;1.10;;;12.90;99.90;;;;;;4901188;29;20635;-71
2023/02/16 18:29:22;;;;;;;1.40;0.90;;;12.90;99.90;;;;;;4891250;29;20044;-72
2023/02/16 18:31:47;;;;;;;2.15;1.30;;;12.90;99.90;;;;;;4897483;29;20103;-72
2023/02/16 18:34:13;;;;;;;1.95;1.10;;;12.80;99.90;;;;;;4888239;29;20036;-71
2023/02/16 18:36:39;;;;;;;1.88;0.80;;;12.80;99.90;;;;;;4910562;29;20036;-71
2023/02/16 18:39:06;;;;;;;1.00;0.80;;;12.80;99.90;;;;;;4915264;29;20115;-70
2023/02/16 18:41:32;;;;;;;1.83;1.33;;;12.80;99.90;;;;;;4916775;29;20067;-73
2023/02/16 18:43:58;;;;;;;1.52;0.93;;;12.80;99.90;;;;;;4916804;29;20405;-72
2023/02/16 18:46:24;;;;;;;1.60;1.10;;;12.80;99.90;;;;;;4920241;29;20102;-81
2023/02/16 18:48:50;;;;;;;1.90;1.27;;;12.80;99.90;;;;;;4901957;29;20028;-82
2023/02/16 18:51:16;;;;;;;1.73;1.25;;;12.80;99.90;;;;;;4902297;29;20056;-81
2023/02/16 18:53:42;;;;;;;1.55;1.02;;;12.80;99.90;;;;;;4898034;29;20519;-80
2023/02/16 18:56:10;;;;;;;1.40;1.10;;;12.80;99.90;;;;;;4920094;29;20048;-80
2023/02/16 18:58:36;;;;;;;1.95;1.23;;;12.80;99.90;;;;;;4902003;29;20028;-80
2023/02/16 19:01:13;;;;;;;1.63;1.30;;;12.80;99.90;;;;;;4902825;29;20393;-80
2023/02/16 19:03:39;;;;;;;1.83;1.42;;;12.80;99.90;;;;;;4900478;29;20028;-80
2023/02/16 19:06:05;;;;;;;1.77;1.48;;;12.80;99.90;;;;;;4902779;29;20020;-81
2023/02/16 19:08:31;;;;;;;1.55;1.20;;;12.80;99.90;;;;;;4899099;29;20032;-77
2023/02/16 19:21:35;;;;;;;2.17;1.40;;;12.70;99.90;;;;;;4887049;29;20040;-88
2023/02/16 19:24:11;;;;;;;2.47;1.70;;;12.70;99.90;;;;;;4878349;29;20032;-89
2023/02/16 19:26:48;;;;;;;;;;;;;;;;;;;;;
2023/02/16 19:29:14;;;;;;;2.40;1.42;;;12.70;99.90;;;;;;4866713;29;20059;-86
2023/02/16 19:31:39;;;;;;;1.40;1.30;;;12.70;99.90;;;;;;4870660;29;20562;-80
2023/02/16 19:34:05;;;;;;;1.85;1.42;;;12.70;99.90;;;;;;4906696;29;20033;-79
2023/02/16 19:36:32;;;;;;;1.40;1.20;;;12.70;99.90;;;;;;4902306;29;20024;-84
2023/02/16 19:38:59;;;;;;;1.30;1.20;;;12.70;99.90;;;;;;4921518;29;20521;-81
2023/02/16 19:41:34;;;;;;;1.75;1.50;;;12.80;99.90;;;;;;4901174;29;20027;-81
2023/02/16 19:44:06;;;;;;;2.13;1.80;;;12.80;99.90;;;;;;4902830;29;20040;-89
2023/02/16 19:46:41;;;;;;;1.98;1.60;;;12.70;99.90;;;;;;4906795;29;20527;-93
2023/02/16 19:49:36;;;;;;;1.70;1.50;;;12.80;99.90;;;;;;4924813;29;20114;-89
2023/02/16 19:52:52;;;;;;;2.22;1.42;;;12.80;99.90;;;;;;4905512;29;20120;-85
2023/02/16 19:55:33;;;;;;;2.60;2.03;;;12.70;99.90;;;;;;4889497;29;20052;-86
2023/02/16 19:58:02;;;;;;;2.00;1.80;;;12.70;99.90;;;;;;4885558;29;20508;-83
2023/02/16 20:00:27;;;;;;;1.95;1.58;;;12.70;99.90;;;;;;4885975;29;20033;-82
2023/02/16 20:02:54;;;;;;;3.00;2.05;;;12.80;99.90;;;;;;4885534;29;20393;-82
2023/02/16 20:05:23;;;;;;;2.40;2.03;;;12.80;99.90;;;;;;4913026;29;20035;-84
2023/02/16 20:07:49;;;;;;;2.17;1.92;;;12.70;99.90;;;;;;4900492;29;20039;-82
2023/02/16 20:10:14;;;;;;;2.95;2.20;;;12.70;99.90;;;;;;4910807;29;20585;-81
2023/02/16 20:12:40;;;;;;;2.33;1.70;;;12.70;99.90;;;;;;4906099;29;20083;-81
2023/02/16 20:15:14;;;;;;;2.42;1.98;;;12.70;99.90;;;;;;4899208;29;20028;-85
2023/02/16 20:17:39;;;;;;;2.10;1.90;;;12.70;99.90;;;;;;4908794;29;20026;-80
2023/02/16 20:20:06;;;;;;;3.05;2.25;;;12.80;99.90;;;;;;4895258;29;20087;-80
2023/02/16 20:22:32;;;;;;;2.15;1.83;;;12.70;99.90;;;;;;4916827;29;20091;-79
2023/02/16 20:24:58;;;;;;;2.92;2.35;;;12.70;99.90;;;;;;4916714;29;20121;-79
2023/02/16 20:27:24;;;;;;;4.13;2.38;;;12.70;99.90;;;;;;4916305;29;20051;-78
2023/02/16 20:29:50;;;;;;;3.25;2.60;;;12.70;99.90;;;;;;4936472;29;20100;-78
2023/02/16 20:32:16;;;;;;;3.40;2.58;;;12.70;99.90;;;;;;4926297;29;20029;-82
2023/02/16 20:34:41;;;;;;;2.78;2.40;;;12.70;99.90;;;;;;4926016;29;20028;-81
2023/02/16 20:37:07;;;;;;;3.83;3.05;;;12.70;99.90;;;;;;4927937;29;20035;-80
2023/02/16 20:39:32;;;;;;;4.10;2.58;;;12.70;99.90;;;;;;4925783;29;20028;-82
2023/02/16 20:41:58;;;;;;;3.53;2.40;;;12.70;99.90;;;;;;4914581;29;20382;-80
2023/02/16 20:44:25;;;;;;;3.00;2.65;;;12.60;99.90;;;;;;4902955;29;20035;-81
2023/02/16 20:46:51;;;;;;;2.88;2.47;;;12.60;99.90;;;;;;4919576;29;20063;-80
2023/02/16 20:49:17;;;;;;;3.22;2.70;;;12.70;99.90;;;;;;4915337;29;20058;-82
2023/02/16 20:51:42;;;;;;;2.70;2.10;;;12.70;99.90;;;;;;4915462;29;20060;-74
2023/02/16 20:54:09;;;;;;;3.53;2.40;;;12.70;99.90;;;;;;4885357;29;20029;-74
2023/02/16 20:56:37;;;;;;;3.08;2.55;;;12.70;99.90;;;;;;4904509;29;20033;-78
2023/02/16 20:59:03;;;;;;;2.67;2.47;;;12.70;99.90;;;;;;4893001;29;20036;-81
2023/02/16 21:01:42;;;;;;;2.50;2.20;;;12.70;99.90;;;;;;4901481;29;20028;-82
2023/02/16 21:04:08;;;;;;;3.10;2.45;;;12.70;99.90;;;;;;4884975;29;20028;-80
2023/02/16 21:06:35;;;;;;;2.35;2.15;;;12.70;99.90;;;;;;4887412;29;20413;-81
2023/02/16 21:09:02;;;;;;;3.50;2.50;;;12.70;99.90;;;;;;4912041;29;20037;-80
2023/02/16 21:11:28;;;;;;;2.85;2.30;;;12.70;99.90;;;;;;4892358;29;20016;-81